Time;durP1;ratioP1;P1;durP2;ratioP2;P2;SDS_P1;SDS_P2;PMS_P1;PMS_P2;Temp;Humidity;BMP_temperature;BMP_pressure;BME280_temperature;BME280_humidity;BME280_pressure;Samples;Min_cycle;Max_cycle;Signal;HPM_P1;HPM_P2
2023/10/30 00:01:45;;;;;;;1.67;1.57;;;;;;;;;;6200164;23;20391;-92
2023/10/30 00:04:11;;;;;;;3.60;1.60;;;;;;;;;;6199007;23;20637;-92
2023/10/30 00:06:37;;;;;;;2.53;1.63;;;;;;;;;;6198363;23;20418;-92
2023/10/30 00:09:03;;;;;;;1.50;1.30;;;;;;;;;;6198240;23;20391;-91
2023/10/30 00:11:29;;;;;;;2.67;1.50;;;;;;;;;;6198714;23;20863;-91
2023/10/30 00:13:55;;;;;;;1.90;1.80;;;;;;;;;;6198077;23;20399;-92
2023/10/30 00:16:23;;;;;;;1.50;1.37;;;;;;;;;;6197650;23;20434;-90
2023/10/30 00:18:49;;;;;;;1.60;1.50;;;;;;;;;;6199504;23;20402;-92
2023/10/30 00:21:15;;;;;;;1.40;1.30;;;;;;;;;;6197530;23;20414;-92
2023/10/30 00:23:41;;;;;;;1.63;1.30;;;;;;;;;;6200100;23;20388;-91
2023/10/30 00:26:07;;;;;;;2.50;2.00;;;;;;;;;;6197457;23;20422;-89
2023/10/30 00:28:34;;;;;;;2.20;1.47;;;;;;;;;;6200528;23;20476;-92
2023/10/30 00:31:00;;;;;;;2.27;2.00;;;;;;;;;;6196272;23;20387;-90
2023/10/30 00:33:26;;;;;;;2.70;1.83;;;;;;;;;;6198690;23;20379;-92
2023/10/30 00:35:52;;;;;;;1.80;1.57;;;;;;;;;;6198273;23;20884;-91
2023/10/30 00:38:18;;;;;;;1.97;1.30;;;;;;;;;;6197324;23;20874;-92
2023/10/30 00:40:44;;;;;;;1.97;1.70;;;;;;;;;;6200307;23;20379;-92
2023/10/30 00:43:10;;;;;;;2.97;2.67;;;;;;;;;;6201108;23;20395;-92
2023/10/30 00:45:36;;;;;;;1.67;1.57;;;;;;;;;;6226941;23;20393;-91
2023/10/30 00:48:02;;;;;;;2.33;1.77;;;;;;;;;;6199624;23;20383;-91
2023/10/30 00:50:28;;;;;;;2.60;1.83;;;;;;;;;;6198911;23;20461;-91
2023/10/30 00:52:54;;;;;;;1.60;1.50;;;;;;;;;;6199464;23;20773;-91
2023/10/30 00:55:20;;;;;;;1.97;1.87;;;;;;;;;;6225353;23;20965;-92
2023/10/30 00:57:46;;;;;;;1.97;1.57;;;;;;;;;;6198696;23;20375;-92
2023/10/30 01:00:13;;;;;;;1.53;1.43;;;;;;;;;;6201549;23;20386;-92
2023/10/30 01:02:39;;;;;;;2.33;2.00;;;;;;;;;;6197780;23;20413;-91
2023/10/30 01:05:08;;;;;;;2.37;1.80;;;;;;;;;;6197188;23;20470;-89
2023/10/30 01:07:33;;;;;;;2.83;2.63;;;;;;;;;;6222637;23;20403;-92
2023/10/30 01:09:59;;;;;;;2.50;2.30;;;;;;;;;;6199446;23;20367;-92
2023/10/30 01:12:25;;;;;;;1.90;1.60;;;;;;;;;;6197088;22;20382;-90
2023/10/30 01:14:52;;;;;;;2.50;2.00;;;;;;;;;;6199023;23;20413;-90
2023/10/30 01:17:18;;;;;;;3.43;1.83;;;;;;;;;;6196286;23;20383;-92
2023/10/30 01:19:44;;;;;;;3.30;1.70;;;;;;;;;;6197388;23;20379;-92
2023/10/30 01:22:10;;;;;;;2.33;1.90;;;;;;;;;;6197737;23;20394;-89
2023/10/30 01:24:36;;;;;;;2.93;2.07;;;;;;;;;;6200890;23;20406;-92
2023/10/30 01:27:02;;;;;;;2.37;1.50;;;;;;;;;;6197553;23;20418;-92
2023/10/30 01:29:29;;;;;;;1.40;1.23;;;;;;;;;;6176409;23;20406;-91
2023/10/30 01:31:55;;;;;;;1.63;1.53;;;;;;;;;;6173142;23;20387;-92
2023/10/30 01:34:21;;;;;;;2.03;1.80;;;;;;;;;;6172009;23;20385;-92
2023/10/30 01:36:47;;;;;;;1.57;1.40;;;;;;;;;;6173037;23;20395;-91
2023/10/30 01:39:13;;;;;;;1.67;1.50;;;;;;;;;;6170464;23;20440;-87
2023/10/30 01:41:42;;;;;;;4.13;1.30;;;;;;;;;;6195678;23;20367;-88
2023/10/30 01:44:08;;;;;;;1.40;1.30;;;;;;;;;;6171987;23;20752;-87
2023/10/30 01:46:34;;;;;;;3.03;1.33;;;;;;;;;;6170701;23;20425;-87
2023/10/30 01:49:00;;;;;;;3.80;1.43;;;;;;;;;;6170337;23;20715;-87
2023/10/30 01:51:26;;;;;;;1.53;1.40;;;;;;;;;;6169954;23;20387;-87
2023/10/30 01:53:52;;;;;;;1.70;1.30;;;;;;;;;;6169531;23;20359;-87
2023/10/30 01:56:18;;;;;;;1.70;1.60;;;;;;;;;;6171125;23;20383;-88
2023/10/30 01:58:44;;;;;;;2.03;1.67;;;;;;;;;;6169328;23;20380;-88
2023/10/30 02:01:10;;;;;;;1.40;1.20;;;;;;;;;;6167685;23;20415;-88
2023/10/30 02:03:36;;;;;;;1.83;1.43;;;;;;;;;;6167906;23;20684;-88
2023/10/30 02:06:03;;;;;;;3.10;1.67;;;;;;;;;;6173040;23;20497;-89
2023/10/30 02:08:29;;;;;;;1.50;1.40;;;;;;;;;;6194464;23;20371;-88
2023/10/30 02:10:55;;;;;;;2.00;1.53;;;;;;;;;;6170904;23;20425;-88
2023/10/30 02:13:21;;;;;;;2.63;1.70;;;;;;;;;;6169591;23;20401;-92
2023/10/30 02:15:47;;;;;;;1.90;1.60;;;;;;;;;;6173192;23;20359;-92
2023/10/30 02:18:13;;;;;;;2.40;1.67;;;;;;;;;;6173961;23;20406;-92
2023/10/30 02:20:40;;;;;;;1.60;1.50;;;;;;;;;;6176886;23;20383;-92
2023/10/30 02:23:06;;;;;;;1.47;1.37;;;;;;;;;;6175623;23;20401;-93
2023/10/30 02:25:35;;;;;;;2.30;1.60;;;;;;;;;;6174141;23;20371;-91
2023/10/30 02:28:01;;;;;;;1.50;1.40;;;;;;;;;;6185151;23;20399;-91
2023/10/30 02:30:27;;;;;;;2.23;1.40;;;;;;;;;;6200861;23;20383;-94
2023/10/30 02:32:53;;;;;;;2.67;1.37;;;;;;;;;;6225465;23;20367;-92
2023/10/30 02:35:19;;;;;;;1.80;1.60;;;;;;;;;;6200786;23;20449;-93
2023/10/30 02:37:45;;;;;;;2.70;1.47;;;;;;;;;;6202561;23;20385;-92
2023/10/30 02:40:11;;;;;;;4.07;1.70;;;;;;;;;;6198899;23;20375;-92
2023/10/30 02:42:37;;;;;;;2.20;1.13;;;;;;;;;;6224110;23;20394;-91
2023/10/30 02:45:06;;;;;;;1.33;1.23;;;;;;;;;;6198602;23;20375;-91
2023/10/30 02:47:32;;;;;;;4.80;1.40;;;;;;;;;;6199847;23;20486;-90
2023/10/30 02:49:58;;;;;;;2.30;1.23;;;;;;;;;;6198488;23;20379;-92
2023/10/30 02:52:24;;;;;;;2.30;1.20;;;;;;;;;;6199177;23;20445;-91
2023/10/30 02:54:50;;;;;;;1.30;1.03;;;;;;;;;;6198914;23;20381;-92
2023/10/30 02:57:16;;;;;;;1.50;1.40;;;;;;;;;;6200101;23;20383;-92
2023/10/30 02:59:42;;;;;;;1.30;1.20;;;;;;;;;;6199194;23;20383;-92
2023/10/30 03:02:08;;;;;;;2.40;1.57;;;;;;;;;;6197257;23;20402;-92
2023/10/30 03:04:34;;;;;;;2.20;1.30;;;;;;;;;;6197247;23;20394;-92
2023/10/30 03:07:00;;;;;;;1.43;1.03;;;;;;;;;;6200077;23;20418;-92
2023/10/30 03:09:27;;;;;;;1.47;1.37;;;;;;;;;;6198221;23;20394;-92
2023/10/30 03:11:52;;;;;;;1.77;1.40;;;;;;;;;;6200228;23;20430;-92
2023/10/30 03:14:18;;;;;;;1.70;1.27;;;;;;;;;;6198413;23;20375;-92
2023/10/30 03:16:44;;;;;;;4.23;1.90;;;;;;;;;;6199503;23;20726;-93
2023/10/30 03:19:10;;;;;;;2.10;1.73;;;;;;;;;;6195875;23;20398;-90
2023/10/30 03:21:36;;;;;;;1.70;1.60;;;;;;;;;;6197235;23;20383;-92
2023/10/30 03:24:03;;;;;;;1.80;1.37;;;;;;;;;;6196742;23;20387;-92
2023/10/30 03:26:29;;;;;;;1.60;1.23;;;;;;;;;;6197806;23;20498;-92
2023/10/30 03:28:55;;;;;;;2.50;1.40;;;;;;;;;;6198104;23;20482;-91
2023/10/30 03:31:21;;;;;;;1.90;1.70;;;;;;;;;;6197713;23;20393;-90
2023/10/30 03:33:47;;;;;;;2.40;1.40;;;;;;;;;;6196783;23;20407;-91
2023/10/30 03:36:26;;;;;;;2.27;1.53;;;;;;;;;;6200246;23;20383;-93
2023/10/30 03:38:52;;;;;;;2.90;1.60;;;;;;;;;;6197344;23;20893;-93
2023/10/30 03:41:18;;;;;;;1.77;1.60;;;;;;;;;;6201774;23;20383;-92
2023/10/30 03:43:44;;;;;;;1.73;1.60;;;;;;;;;;6198134;23;20429;-93
2023/10/30 03:46:10;;;;;;;1.30;1.20;;;;;;;;;;6197467;23;20422;-92
2023/10/30 03:48:36;;;;;;;2.30;2.10;;;;;;;;;;6198068;23;20379;-90
2023/10/30 03:51:02;;;;;;;1.73;1.57;;;;;;;;;;6197506;23;20434;-92
2023/10/30 03:53:29;;;;;;;3.00;1.70;;;;;;;;;;6197688;23;20375;-92
2023/10/30 03:55:55;;;;;;;5.07;1.70;;;;;;;;;;6199144;23;20379;-94
2023/10/30 03:58:21;;;;;;;1.87;1.77;;;;;;;;;;6197406;23;20391;-92
2023/10/30 04:00:47;;;;;;;2.07;1.87;;;;;;;;;;6197340;23;20387;-93
2023/10/30 04:03:13;;;;;;;2.67;1.83;;;;;;;;;;6200269;23;20386;-91
2023/10/30 04:05:39;;;;;;;1.70;1.60;;;;;;;;;;6197175;23;20379;-92
2023/10/30 04:08:05;;;;;;;1.80;1.70;;;;;;;;;;6200567;23;20386;-93
2023/10/30 04:10:31;;;;;;;3.20;1.50;;;;;;;;;;6198583;23;20390;-93
2023/10/30 04:12:57;;;;;;;2.50;2.30;;;;;;;;;;6202149;23;20367;-93
2023/10/30 04:15:23;;;;;;;2.17;1.97;;;;;;;;;;6196496;23;20447;-93
2023/10/30 04:17:49;;;;;;;2.70;1.57;;;;;;;;;;6197432;23;20367;-90
2023/10/30 04:20:15;;;;;;;2.37;1.60;;;;;;;;;;6196891;23;20408;-91
2023/10/30 04:22:41;;;;;;;4.00;2.07;;;;;;;;;;6198416;23;20394;-93
2023/10/30 04:25:08;;;;;;;3.10;1.73;;;;;;;;;;6196161;23;20375;-94
2023/10/30 04:27:34;;;;;;;3.23;1.53;;;;;;;;;;6196482;23;20458;-93
2023/10/30 04:30:00;;;;;;;2.30;1.90;;;;;;;;;;6195182;23;20870;-88
2023/10/30 04:32:26;;;;;;;2.40;2.13;;;;;;;;;;6196015;23;20399;-88
2023/10/30 04:34:52;;;;;;;2.47;2.23;;;;;;;;;;6193557;23;20713;-88
2023/10/30 04:37:22;;;;;;;5.40;2.43;;;;;;;;;;6195669;23;20401;-88
2023/10/30 04:39:48;;;;;;;3.60;2.23;;;;;;;;;;6195727;23;20395;-88
2023/10/30 04:42:14;;;;;;;2.27;2.07;;;;;;;;;;6195902;23;20379;-89
2023/10/30 04:44:40;;;;;;;2.03;1.80;;;;;;;;;;6195502;23;20867;-89
2023/10/30 04:47:07;;;;;;;3.20;1.90;;;;;;;;;;6222401;23;20434;-88
2023/10/30 04:49:35;;;;;;;2.50;2.27;;;;;;;;;;6197795;23;20375;-88
2023/10/30 04:52:02;;;;;;;2.30;2.10;;;;;;;;;;6221962;23;20428;-88
2023/10/30 04:54:28;;;;;;;2.37;1.63;;;;;;;;;;6195808;23;20486;-88
2023/10/30 04:56:54;;;;;;;1.77;1.50;;;;;;;;;;6193762;23;21068;-89
2023/10/30 04:59:20;;;;;;;2.77;1.50;;;;;;;;;;6194644;23;20368;-87
2023/10/30 05:01:46;;;;;;;2.27;1.70;;;;;;;;;;6194880;23;20375;-88
2023/10/30 05:04:12;;;;;;;2.93;1.57;;;;;;;;;;6195609;23;20375;-88
2023/10/30 05:06:39;;;;;;;1.80;1.20;;;;;;;;;;6194269;23;20419;-89
2023/10/30 05:09:05;;;;;;;1.50;1.40;;;;;;;;;;6195304;23;20699;-88
2023/10/30 05:11:31;;;;;;;3.63;1.47;;;;;;;;;;6194330;23;20395;-88
2023/10/30 05:13:57;;;;;;;3.63;1.60;;;;;;;;;;6195884;23;20410;-88
2023/10/30 05:16:23;;;;;;;2.33;1.97;;;;;;;;;;6195384;23;20395;-89
2023/10/30 05:18:49;;;;;;;2.20;1.63;;;;;;;;;;6197249;23;20855;-88
2023/10/30 05:21:15;;;;;;;1.40;1.30;;;;;;;;;;6221359;23;20371;-88
2023/10/30 05:23:41;;;;;;;3.17;1.57;;;;;;;;;;6197327;23;20383;-88
2023/10/30 05:26:07;;;;;;;2.30;1.60;;;;;;;;;;6195549;23;20980;-88
2023/10/30 05:28:33;;;;;;;2.30;1.43;;;;;;;;;;6194214;23;20402;-88
2023/10/30 05:30:59;;;;;;;2.03;1.70;;;;;;;;;;6195041;23;20786;-88
2023/10/30 05:33:25;;;;;;;4.00;1.93;;;;;;;;;;6197504;23;20818;-89
2023/10/30 05:35:51;;;;;;;2.30;1.83;;;;;;;;;;6194939;23;20438;-88
2023/10/30 05:38:17;;;;;;;4.97;3.50;;;;;;;;;;6195247;23;20380;-88
2023/10/30 05:40:45;;;;;;;4.07;1.97;;;;;;;;;;6195336;23;20382;-88
2023/10/30 05:43:11;;;;;;;1.63;1.53;;;;;;;;;;6196744;23;20390;-89
2023/10/30 05:45:37;;;;;;;2.20;2.00;;;;;;;;;;6220122;23;20359;-89
2023/10/30 05:48:03;;;;;;;4.70;2.00;;;;;;;;;;6196449;23;20913;-89
2023/10/30 05:50:29;;;;;;;1.57;1.40;;;;;;;;;;6196789;23;20391;-89
2023/10/30 05:52:55;;;;;;;2.43;2.23;;;;;;;;;;6194548;23;20415;-90
2023/10/30 05:55:21;;;;;;;1.90;1.80;;;;;;;;;;6197707;23;20379;-90
2023/10/30 05:57:47;;;;;;;2.13;1.70;;;;;;;;;;6197849;23;20413;-89
2023/10/30 06:00:14;;;;;;;2.07;1.87;;;;;;;;;;6198282;23;20375;-89
2023/10/30 06:02:40;;;;;;;3.73;1.70;;;;;;;;;;6196774;23;20969;-91
2023/10/30 06:05:08;;;;;;;6.33;1.93;;;;;;;;;;6199120;23;20449;-91
2023/10/30 06:07:34;;;;;;;2.97;1.80;;;;;;;;;;6198642;23;20445;-91
2023/10/30 06:10:00;;;;;;;3.10;1.70;;;;;;;;;;6199322;23;20444;-90
2023/10/30 06:12:26;;;;;;;3.00;1.60;;;;;;;;;;6198122;23;20447;-90
2023/10/30 06:14:53;;;;;;;3.47;2.13;;;;;;;;;;6197969;23;20414;-91
2023/10/30 06:17:18;;;;;;;2.73;2.00;;;;;;;;;;6198124;23;20387;-89
2023/10/30 06:19:45;;;;;;;3.80;2.63;;;;;;;;;;6200172;23;20383;-91
2023/10/30 06:22:10;;;;;;;2.87;2.43;;;;;;;;;;6222913;23;20391;-89
2023/10/30 06:24:37;;;;;;;3.70;2.93;;;;;;;;;;6198446;23;20429;-90
2023/10/30 06:27:03;;;;;;;3.10;2.80;;;;;;;;;;6201793;23;20498;-89
2023/10/30 06:29:29;;;;;;;3.80;3.43;;;;;;;;;;6111595;23;20402;-89
2023/10/30 06:31:55;;;;;;;5.97;3.87;;;;;;;;;;6086174;23;20377;-88
2023/10/30 06:34:23;;;;;;;4.37;3.97;;;;;;;;;;6083775;23;20386;-89
2023/10/30 06:39:25;;;;;;;5.57;4.87;;;;;;;;;;6214460;23;20536;-90
2023/10/30 06:41:56;;;;;;;4.00;3.60;;;;;;;;;;6202909;23;20418;-90
2023/10/30 06:44:22;;;;;;;3.93;3.50;;;;;;;;;;6204242;23;20441;-91
2023/10/30 06:46:56;;;;;;;4.60;3.60;;;;;;;;;;6198124;23;20434;-90
2023/10/30 06:49:28;;;;;;;5.63;4.10;;;;;;;;;;6197260;23;20391;-90
2023/10/30 06:51:55;;;;;;;4.90;4.00;;;;;;;;;;6200046;23;20466;-91
2023/10/30 06:54:21;;;;;;;8.40;3.93;;;;;;;;;;6199141;23;20390;-90
2023/10/30 06:56:47;;;;;;;4.20;3.80;;;;;;;;;;6225035;23;20567;-90
2023/10/30 06:59:14;;;;;;;4.83;4.33;;;;;;;;;;6200122;23;20392;-90
2023/10/30 07:01:43;;;;;;;7.27;4.53;;;;;;;;;;6196588;23;20933;-91
2023/10/30 07:04:10;;;;;;;6.93;4.33;;;;;;;;;;6199376;23;20378;-87
2023/10/30 07:06:37;;;;;;;5.57;4.00;;;;;;;;;;6198314;23;20502;-90
2023/10/30 07:09:03;;;;;;;4.50;4.10;;;;;;;;;;6201925;23;20405;-89
2023/10/30 07:11:29;;;;;;;6.17;4.90;;;;;;;;;;6162817;23;20692;-88
2023/10/30 07:13:56;;;;;;;4.93;4.17;;;;;;;;;;6114579;23;20380;-89
2023/10/30 07:16:22;;;;;;;7.70;5.07;;;;;;;;;;6114654;23;20395;-90
2023/10/30 07:18:48;;;;;;;7.40;5.43;;;;;;;;;;6117872;23;20393;-90
2023/10/30 07:21:14;;;;;;;9.50;4.97;;;;;;;;;;6116398;23;20399;-89
2023/10/30 07:23:40;;;;;;;6.37;5.00;;;;;;;;;;6115438;23;20899;-90
2023/10/30 07:26:06;;;;;;;5.10;4.60;;;;;;;;;;6113733;23;20452;-89
2023/10/30 07:28:32;;;;;;;7.30;4.33;;;;;;;;;;6112521;23;20398;-89
2023/10/30 07:30:58;;;;;;;5.97;4.80;;;;;;;;;;6114820;23;20381;-89
2023/10/30 07:33:24;;;;;;;5.90;5.30;;;;;;;;;;6113212;23;20412;-88
2023/10/30 07:36:02;;;;;;;6.50;4.97;;;;;;;;;;6113877;23;20436;-89
2023/10/30 07:38:28;;;;;;;7.23;5.23;;;;;;;;;;6110195;23;20460;-89
2023/10/30 07:40:55;;;;;;;7.47;4.47;;;;;;;;;;6117804;23;20362;-89
2023/10/30 07:43:23;;;;;;;5.57;4.40;;;;;;;;;;6164752;23;20462;-89
2023/10/30 07:45:52;;;;;;;7.47;4.97;;;;;;;;;;6226230;22;20363;-89
2023/10/30 07:48:20;;;;;;;6.23;5.17;;;;;;;;;;6195537;23;20457;-88
2023/10/30 07:50:46;;;;;;;5.27;4.77;;;;;;;;;;6199543;23;20393;-88
2023/10/30 07:53:14;;;;;;;13.10;6.43;;;;;;;;;;6196925;23;20391;-88
2023/10/30 07:55:40;;;;;;;5.47;4.97;;;;;;;;;;6202407;23;20383;-88
2023/10/30 07:58:06;;;;;;;6.60;5.30;;;;;;;;;;6196762;23;20402;-88
2023/10/30 08:00:35;;;;;;;5.47;4.97;;;;;;;;;;6199000;23;20386;-88
2023/10/30 08:03:02;;;;;;;5.87;4.50;;;;;;;;;;6195985;23;20392;-87
2023/10/30 08:05:30;;;;;;;5.90;4.73;;;;;;;;;;6198482;23;20419;-88
2023/10/30 08:07:56;;;;;;;5.13;4.63;;;;;;;;;;6196733;23;21009;-89
2023/10/30 08:10:22;;;;;;;7.23;3.93;;;;;;;;;;6196791;23;20441;-88
2023/10/30 08:12:48;;;;;;;5.43;4.23;;;;;;;;;;6196720;23;20403;-87
2023/10/30 08:15:15;;;;;;;5.20;4.60;;;;;;;;;;6222085;23;20375;-88
2023/10/30 08:17:41;;;;;;;6.23;4.50;;;;;;;;;;6195522;23;20470;-88
2023/10/30 08:20:09;;;;;;;4.63;4.20;;;;;;;;;;6194853;23;20411;-88
2023/10/30 08:22:35;;;;;;;7.10;5.30;;;;;;;;;;6195665;23;20439;-88
2023/10/30 08:25:02;;;;;;;5.43;4.07;;;;;;;;;;6195780;23;20730;-86
2023/10/30 08:27:28;;;;;;;7.30;4.83;;;;;;;;;;6197805;22;20430;-89
2023/10/30 08:29:54;;;;;;;4.83;3.87;;;;;;;;;;6196090;23;20410;-89
2023/10/30 08:32:22;;;;;;;5.83;5.23;;;;;;;;;;6227378;23;20364;-88
2023/10/30 08:34:48;;;;;;;4.70;3.87;;;;;;;;;;6197743;23;20384;-88
2023/10/30 08:37:14;;;;;;;5.60;4.93;;;;;;;;;;6224274;23;20368;-88
2023/10/30 08:39:40;;;;;;;4.77;4.23;;;;;;;;;;6196361;23;20902;-89
2023/10/30 08:42:10;;;;;;;8.93;4.83;;;;;;;;;;6206125;23;20406;-89
2023/10/30 08:44:36;;;;;;;4.60;3.97;;;;;;;;;;6200632;23;20410;-89
2023/10/30 08:47:02;;;;;;;7.47;4.67;;;;;;;;;;6200409;23;20432;-89
2023/10/30 08:49:28;;;;;;;5.33;4.23;;;;;;;;;;6200035;23;20508;-89
2023/10/30 08:51:54;;;;;;;6.13;4.80;;;;;;;;;;6199120;23;20384;-89
2023/10/30 08:54:21;;;;;;;6.93;4.93;;;;;;;;;;6223534;23;20823;-90
2023/10/30 08:56:46;;;;;;;5.13;4.20;;;;;;;;;;6200930;23;20380;-89
2023/10/30 08:59:13;;;;;;;4.57;3.60;;;;;;;;;;6198948;23;20378;-89
2023/10/30 09:01:38;;;;;;;4.53;3.70;;;;;;;;;;6200501;23;20410;-89
2023/10/30 09:04:05;;;;;;;4.23;3.40;;;;;;;;;;6222782;23;20398;-89
2023/10/30 09:06:32;;;;;;;5.33;3.90;;;;;;;;;;6198913;23;20419;-88
2023/10/30 09:08:58;;;;;;;5.23;4.73;;;;;;;;;;6196470;23;20379;-89
2023/10/30 09:11:24;;;;;;;4.63;4.17;;;;;;;;;;6195483;23;20355;-90
2023/10/30 09:13:50;;;;;;;7.33;4.10;;;;;;;;;;6195078;23;20390;-87
2023/10/30 09:16:16;;;;;;;3.77;3.37;;;;;;;;;;6196103;23;20450;-88
2023/10/30 09:18:42;;;;;;;2.97;2.63;;;;;;;;;;6219774;23;20378;-89
2023/10/30 09:21:09;;;;;;;3.53;3.20;;;;;;;;;;6194289;23;20784;-87
2023/10/30 09:23:35;;;;;;;4.30;3.80;;;;;;;;;;6195213;23;20462;-90
2023/10/30 09:26:03;;;;;;;3.90;3.40;;;;;;;;;;6194458;23;20422;-90
2023/10/30 09:28:29;;;;;;;4.00;3.60;;;;;;;;;;6219923;23;20371;-89
2023/10/30 09:30:58;;;;;;;4.27;3.17;;;;;;;;;;6196252;23;20486;-87
2023/10/30 09:33:24;;;;;;;3.30;3.00;;;;;;;;;;6197420;23;20402;-87
2023/10/30 09:35:50;;;;;;;3.43;3.13;;;;;;;;;;6194955;23;20372;-86
2023/10/30 09:38:16;;;;;;;4.07;3.07;;;;;;;;;;6166431;23;20444;-88
2023/10/30 09:40:44;;;;;;;6.13;2.70;;;;;;;;;;6138677;23;20414;-87
2023/10/30 09:43:10;;;;;;;3.70;3.17;;;;;;;;;;6142021;23;20788;-87
2023/10/30 09:45:36;;;;;;;4.03;2.70;;;;;;;;;;6138828;23;20368;-87
2023/10/30 09:48:03;;;;;;;3.67;2.90;;;;;;;;;;6139082;23;20423;-87
2023/10/30 09:50:29;;;;;;;4.20;2.23;;;;;;;;;;6138693;23;20387;-87
2023/10/30 09:52:55;;;;;;;3.50;3.00;;;;;;;;;;6139680;23;20448;-88
2023/10/30 09:55:24;;;;;;;3.27;2.73;;;;;;;;;;6141091;23;20423;-88
2023/10/30 09:57:53;;;;;;;4.73;2.80;;;;;;;;;;6140846;23;20933;-87
2023/10/30 10:00:19;;;;;;;3.00;2.63;;;;;;;;;;6140256;23;20364;-88
2023/10/30 10:02:47;;;;;;;3.17;2.87;;;;;;;;;;6140147;23;20388;-87
2023/10/30 10:05:15;;;;;;;3.20;2.83;;;;;;;;;;6171165;23;20833;-88
2023/10/30 10:07:41;;;;;;;2.87;2.47;;;;;;;;;;6166216;23;20774;-87
2023/10/30 10:10:08;;;;;;;2.53;2.10;;;;;;;;;;6165788;23;20498;-87
2023/10/30 10:12:37;;;;;;;5.77;2.67;;;;;;;;;;6197474;23;20387;-88
2023/10/30 10:15:06;;;;;;;3.40;2.40;;;;;;;;;;6221872;23;20933;-88
2023/10/30 10:17:42;;;;;;;3.40;3.00;;;;;;;;;;6196952;23;20398;-88
2023/10/30 10:20:08;;;;;;;2.50;2.30;;;;;;;;;;6193837;23;20383;-88
2023/10/30 10:22:35;;;;;;;5.40;3.07;;;;;;;;;;6194300;23;20385;-87
2023/10/30 10:25:02;;;;;;;3.30;2.57;;;;;;;;;;6195235;23;20449;-87
2023/10/30 10:27:28;;;;;;;4.33;2.17;;;;;;;;;;6219687;23;20415;-88
2023/10/30 10:29:54;;;;;;;6.30;3.33;;;;;;;;;;6195033;23;20375;-88
2023/10/30 10:32:27;;;;;;;2.93;2.63;;;;;;;;;;6196422;23;20410;-89
2023/10/30 10:34:54;;;;;;;3.33;2.90;;;;;;;;;;6219413;23;20367;-88
2023/10/30 10:37:23;;;;;;;3.33;2.47;;;;;;;;;;6223847;23;20430;-88
2023/10/30 10:39:53;;;;;;;2.97;2.47;;;;;;;;;;6199684;23;20895;-87
2023/10/30 10:42:19;;;;;;;2.80;2.60;;;;;;;;;;6200158;23;20945;-88
2023/10/30 10:44:45;;;;;;;3.53;2.80;;;;;;;;;;6222639;23;20449;-88
2023/10/30 10:47:12;;;;;;;3.47;2.00;;;;;;;;;;6226973;23;20442;-87
2023/10/30 10:49:47;;;;;;;4.30;3.00;;;;;;;;;;6223913;23;20363;-85
2023/10/30 10:52:14;;;;;;;2.40;2.20;;;;;;;;;;6198752;23;20382;-87
2023/10/30 10:54:47;;;;;;;2.43;2.23;;;;;;;;;;6195282;23;20390;-88
2023/10/30 10:57:15;;;;;;;3.90;1.87;;;;;;;;;;6199160;23;20383;-89
2023/10/30 10:59:41;;;;;;;9.80;2.93;;;;;;;;;;6195874;23;20371;-88
2023/10/30 11:02:11;;;;;;;2.57;2.37;;;;;;;;;;6222515;23;20427;-87
2023/10/30 11:04:36;;;;;;;3.90;2.57;;;;;;;;;;6196403;23;20406;-87
2023/10/30 11:07:03;;;;;;;2.83;2.10;;;;;;;;;;6198316;23;20419;-86
2023/10/30 11:09:32;;;;;;;3.27;2.40;;;;;;;;;;6194679;23;20383;-88
2023/10/30 11:12:01;;;;;;;2.90;2.20;;;;;;;;;;6224565;23;20858;-87
2023/10/30 11:14:45;;;;;;;2.20;2.00;;;;;;;;;;6220547;22;20386;-88
2023/10/30 11:17:11;;;;;;;7.47;2.87;;;;;;;;;;6196594;23;20462;-88
2023/10/30 11:19:37;;;;;;;5.73;2.00;;;;;;;;;;6192588;23;20413;-88
2023/10/30 11:22:03;;;;;;;3.80;1.80;;;;;;;;;;6197256;23;20391;-88
2023/10/30 11:24:40;;;;;;;2.70;1.70;;;;;;;;;;6193971;23;20411;-88
2023/10/30 11:27:25;;;;;;;1.60;1.50;;;;;;;;;;6194199;23;20484;-88
2023/10/30 11:30:07;;;;;;;2.20;1.70;;;;;;;;;;6218858;23;20391;-90
2023/10/30 11:32:56;;;;;;;2.10;1.63;;;;;;;;;;6193430;23;20411;-88
2023/10/30 11:35:23;;;;;;;1.97;1.77;;;;;;;;;;6199817;23;20359;-88
2023/10/30 11:37:50;;;;;;;2.20;1.73;;;;;;;;;;6190181;23;20384;-88
2023/10/30 11:40:16;;;;;;;1.80;1.53;;;;;;;;;;6192236;23;20395;-89
2023/10/30 11:42:43;;;;;;;1.60;1.40;;;;;;;;;;6195760;23;20438;-89
2023/10/30 11:45:25;;;;;;;2.40;1.70;;;;;;;;;;6193747;23;20471;-88
2023/10/30 11:47:56;;;;;;;2.03;1.17;;;;;;;;;;6193855;23;20434;-89
2023/10/30 11:50:27;;;;;;;3.10;1.40;;;;;;;;;;6221654;23;20415;-89
2023/10/30 11:52:53;;;;;;;1.77;0.90;;;;;;;;;;6195348;23;20439;-89
2023/10/30 11:55:19;;;;;;;1.17;0.90;;;;;;;;;;6197315;23;20388;-89
2023/10/30 11:57:45;;;;;;;1.60;1.00;;;;;;;;;;6193791;23;20394;-90
2023/10/30 12:00:11;;;;;;;1.37;1.00;;;;;;;;;;6196999;23;20401;-90
2023/10/30 12:02:41;;;;;;;2.60;1.03;;;;;;;;;;6195629;23;20399;-89
2023/10/30 12:05:07;;;;;;;1.53;1.10;;;;;;;;;;6196775;23;20474;-89
2023/10/30 12:07:33;;;;;;;2.27;0.90;;;;;;;;;;6194031;23;20758;-88
2023/10/30 12:10:03;;;;;;;1.63;1.47;;;;;;;;;;6196965;23;20470;-89
2023/10/30 12:12:31;;;;;;;1.60;1.50;;;;;;;;;;6195850;23;20367;-90
2023/10/30 12:14:58;;;;;;;6.90;1.50;;;;;;;;;;6195394;23;20379;-89
2023/10/30 12:17:24;;;;;;;1.03;0.93;;;;;;;;;;6133586;23;20378;-88
2023/10/30 12:19:50;;;;;;;1.90;1.10;;;;;;;;;;6101761;23;20378;-87
2023/10/30 12:22:16;;;;;;;1.73;1.17;;;;;;;;;;6105227;23;20405;-88
2023/10/30 12:24:46;;;;;;;1.90;1.00;;;;;;;;;;6103039;23;20362;-87
2023/10/30 12:27:21;;;;;;;1.27;1.07;;;;;;;;;;6105559;23;20613;-87
2023/10/30 12:29:47;;;;;;;2.07;1.33;;;;;;;;;;6106176;23;20408;-88
2023/10/30 12:32:14;;;;;;;4.00;2.20;;;;;;;;;;6107933;23;20386;-88
2023/10/30 12:34:40;;;;;;;2.07;1.43;;;;;;;;;;6104531;23;20371;-87
2023/10/30 12:37:19;;;;;;;2.13;1.00;;;;;;;;;;6107628;23;20828;-87
2023/10/30 12:40:00;;;;;;;2.00;1.60;;;;;;;;;;6104758;23;20396;-88
2023/10/30 12:42:27;;;;;;;4.90;1.10;;;;;;;;;;6132589;23;20425;-87
2023/10/30 12:44:53;;;;;;;2.50;1.40;;;;;;;;;;6103441;23;20377;-88
2023/10/30 12:47:19;;;;;;;1.43;1.13;;;;;;;;;;6111539;23;20440;-89
2023/10/30 12:49:45;;;;;;;3.23;1.20;;;;;;;;;;6162028;23;20630;-87
2023/10/30 12:52:11;;;;;;;2.30;1.20;;;;;;;;;;6166201;23;20368;-87
2023/10/30 12:54:37;;;;;;;1.90;1.13;;;;;;;;;;6184737;23;20421;-89
2023/10/30 12:57:03;;;;;;;1.80;1.20;;;;;;;;;;6223866;23;20418;-88
2023/10/30 12:59:29;;;;;;;1.57;1.17;;;;;;;;;;6195855;23;20801;-89
2023/10/30 13:01:55;;;;;;;3.97;1.50;;;;;;;;;;6195439;23;20379;-89
2023/10/30 13:04:21;;;;;;;2.07;1.33;;;;;;;;;;6197121;23;20920;-89
2023/10/30 13:06:47;;;;;;;2.50;1.17;;;;;;;;;;6198014;23;20500;-90
2023/10/30 13:09:13;;;;;;;2.03;0.90;;;;;;;;;;6198414;23;20375;-91
2023/10/30 13:11:39;;;;;;;1.73;0.90;;;;;;;;;;6199485;23;20451;-91
2023/10/30 13:14:05;;;;;;;1.80;1.10;;;;;;;;;;6198442;23;20375;-90
2023/10/30 13:16:31;;;;;;;1.27;0.90;;;;;;;;;;6198006;23;20382;-90
2023/10/30 13:18:58;;;;;;;1.60;1.10;;;;;;;;;;6167243;23;20392;-90
2023/10/30 13:21:24;;;;;;;3.77;1.60;;;;;;;;;;6169471;23;20522;-90
2023/10/30 13:23:50;;;;;;;1.70;1.30;;;;;;;;;;6169410;23;20387;-88
2023/10/30 13:26:17;;;;;;;1.17;0.97;;;;;;;;;;6168551;23;20431;-89
2023/10/30 13:28:44;;;;;;;1.47;1.13;;;;;;;;;;6166966;23;20363;-91
2023/10/30 13:31:10;;;;;;;3.63;1.10;;;;;;;;;;6159467;23;20381;-89
2023/10/30 13:33:36;;;;;;;1.83;1.00;;;;;;;;;;6160001;23;20400;-89
2023/10/30 13:36:03;;;;;;;1.43;1.00;;;;;;;;;;6134320;23;20443;-90
2023/10/30 13:38:28;;;;;;;1.77;1.57;;;;;;;;;;6135545;23;20560;-90
2023/10/30 13:40:55;;;;;;;5.00;2.77;;;;;;;;;;6135528;23;20420;-91
2023/10/30 13:43:21;;;;;;;1.83;1.40;;;;;;;;;;6136998;23;20392;-93
2023/10/30 13:45:47;;;;;;;3.50;1.93;;;;;;;;;;6137625;23;20384;-93
2023/10/30 13:48:13;;;;;;;2.77;1.60;;;;;;;;;;6164261;23;20453;-92
2023/10/30 13:50:40;;;;;;;2.87;1.50;;;;;;;;;;6164059;23;20396;-93
2023/10/30 13:53:06;;;;;;;2.37;1.63;;;;;;;;;;6144056;23;20399;-94
2023/10/30 13:55:32;;;;;;;1.47;1.20;;;;;;;;;;6146629;23;20415;-94
2023/10/30 13:57:58;;;;;;;3.57;1.50;;;;;;;;;;6143398;23;20384;-93
2023/10/30 14:00:24;;;;;;;3.27;0.90;;;;;;;;;;6167401;23;20952;-92
2023/10/30 14:02:50;;;;;;;1.60;1.20;;;;;;;;;;6185653;23;20394;-95
2023/10/30 14:05:17;;;;;;;1.83;1.00;;;;;;;;;;6200890;23;20462;-94
2023/10/30 14:07:43;;;;;;;1.50;1.17;;;;;;;;;;6198516;23;20427;-94
2023/10/30 14:10:10;;;;;;;1.90;1.23;;;;;;;;;;6202942;23;20855;-95
2023/10/30 14:12:36;;;;;;;3.13;1.60;;;;;;;;;;6198371;23;20409;-94
2023/10/30 14:15:02;;;;;;;1.50;1.20;;;;;;;;;;6199966;23;20387;-93
2023/10/30 14:17:28;;;;;;;1.70;1.43;;;;;;;;;;6199446;23;20367;-92
2023/10/30 14:19:54;;;;;;;2.00;1.50;;;;;;;;;;6199060;23;20395;-93
2023/10/30 14:22:21;;;;;;;1.97;1.70;;;;;;;;;;6198126;23;20454;-93
2023/10/30 14:24:47;;;;;;;3.63;2.30;;;;;;;;;;6199442;23;20390;-94
2023/10/30 14:27:15;;;;;;;2.50;1.90;;;;;;;;;;6200335;23;20517;-93
2023/10/30 14:29:42;;;;;;;3.83;1.87;;;;;;;;;;6254179;23;20371;-93
2023/10/30 14:32:08;;;;;;;2.37;1.37;;;;;;;;;;6201319;23;20383;-94
2023/10/30 14:34:35;;;;;;;2.20;1.60;;;;;;;;;;6201307;23;20363;-94
2023/10/30 14:37:02;;;;;;;3.13;1.20;;;;;;;;;;6201626;23;20437;-92
2023/10/30 14:39:28;;;;;;;2.33;1.57;;;;;;;;;;6201788;23;20403;-93
2023/10/30 14:41:54;;;;;;;7.50;1.63;;;;;;;;;;6201915;23;20875;-94
2023/10/30 14:44:21;;;;;;;2.00;1.43;;;;;;;;;;6201580;23;20484;-93